Time;durP1;ratioP1;P1;durP2;ratioP2;P2;SDS_P1;SDS_P2;PMS_P1;PMS_P2;Temp;Humidity;BMP_temperature;BMP_pressure;BME280_temperature;BME280_humidity;BME280_pressure;Samples;Min_cycle;Max_cycle;Signal;HPM_P1;HPM_P2
2023/05/20 00:01:42;;;;;;;2.27;2.10;;;14.00;99.90;;;;;;4985825;28;20295;-71
2023/05/20 00:04:09;;;;;;;3.77;2.40;;;14.00;99.90;;;;;;4970732;28;20211;-71
2023/05/20 00:06:35;;;;;;;3.40;2.40;;;14.00;99.90;;;;;;4970273;28;20211;-71
2023/05/20 00:09:03;;;;;;;4.70;2.70;;;14.10;99.90;;;;;;4970268;28;20321;-71
2023/05/20 00:11:31;;;;;;;4.37;2.60;;;14.00;99.90;;;;;;4986072;28;20242;-71
2023/05/20 00:13:58;;;;;;;2.93;2.70;;;14.00;99.90;;;;;;4989698;28;20218;-71
2023/05/20 00:16:25;;;;;;;2.70;2.40;;;14.10;99.90;;;;;;4989236;28;20305;-71
2023/05/20 00:18:52;;;;;;;5.43;2.33;;;14.00;99.90;;;;;;4989503;28;20385;-72
2023/05/20 00:21:18;;;;;;;5.23;2.60;;;14.00;99.90;;;;;;4988823;28;20304;-71
2023/05/20 00:23:45;;;;;;;2.43;2.20;;;13.90;99.90;;;;;;4989355;28;20213;-71
2023/05/20 00:26:12;;;;;;;3.37;2.70;;;13.90;99.90;;;;;;4989306;28;20305;-71
2023/05/20 00:28:40;;;;;;;3.37;2.47;;;13.90;99.90;;;;;;4989261;28;20562;-71
2023/05/20 00:31:07;;;;;;;3.77;2.60;;;13.80;99.90;;;;;;4988870;28;20316;-70
2023/05/20 00:33:35;;;;;;;3.50;2.83;;;13.80;99.90;;;;;;4988874;28;20257;-71
2023/05/20 00:36:02;;;;;;;5.97;3.00;;;13.80;99.90;;;;;;4988903;28;20216;-71
2023/05/20 00:38:28;;;;;;;5.47;2.70;;;13.80;99.90;;;;;;4988665;28;20627;-72
2023/05/20 00:40:55;;;;;;;5.60;2.83;;;13.80;99.90;;;;;;4988167;28;20222;-72
2023/05/20 00:43:24;;;;;;;3.67;2.87;;;13.70;99.90;;;;;;4988695;28;20206;-72
2023/05/20 00:45:53;;;;;;;3.43;2.30;;;13.80;99.90;;;;;;4988323;28;20253;-73
2023/05/20 00:48:21;;;;;;;2.63;2.43;;;13.70;99.90;;;;;;4988411;28;20305;-72
2023/05/20 00:50:49;;;;;;;3.10;2.80;;;13.70;99.90;;;;;;4988557;28;20335;-72
2023/05/20 00:53:18;;;;;;;2.70;2.50;;;13.70;99.90;;;;;;4988363;28;20310;-72
2023/05/20 00:55:45;;;;;;;2.97;2.70;;;13.70;99.90;;;;;;4988674;28;20236;-72
2023/05/20 00:58:12;;;;;;;2.53;2.33;;;13.60;99.90;;;;;;4988601;28;20222;-72
2023/05/20 01:00:40;;;;;;;3.30;2.80;;;13.60;99.90;;;;;;4988114;28;20680;-72
2023/05/20 01:03:08;;;;;;;3.37;2.40;;;13.60;99.90;;;;;;4970273;28;20691;-72
2023/05/20 01:05:35;;;;;;;2.90;2.60;;;13.70;99.90;;;;;;4983177;28;20632;-72
2023/05/20 01:08:02;;;;;;;4.43;2.60;;;13.70;99.90;;;;;;4988352;28;20354;-72
2023/05/20 01:10:30;;;;;;;3.77;2.80;;;13.60;99.90;;;;;;4980424;28;20325;-73
2023/05/20 01:13:01;;;;;;;2.77;2.60;;;13.60;99.90;;;;;;4985538;28;20202;-72
2023/05/20 01:15:29;;;;;;;3.37;2.50;;;13.60;99.90;;;;;;4988311;28;20212;-73
2023/05/20 01:18:01;;;;;;;5.03;2.80;;;13.60;99.90;;;;;;4988696;28;20305;-72
2023/05/20 01:20:32;;;;;;;2.87;2.60;;;13.50;99.90;;;;;;4988515;28;21024;-73
2023/05/20 01:23:00;;;;;;;2.80;2.53;;;13.50;99.90;;;;;;4988203;28;20198;-73
2023/05/20 01:25:27;;;;;;;4.77;2.90;;;13.50;99.90;;;;;;4988201;28;20648;-72
2023/05/20 01:27:56;;;;;;;3.63;2.70;;;13.40;99.90;;;;;;4988193;28;20246;-71
2023/05/20 01:30:26;;;;;;;3.17;2.70;;;13.40;99.90;;;;;;4987725;28;20234;-72
2023/05/20 01:33:01;;;;;;;2.70;2.50;;;13.50;99.90;;;;;;4988168;28;20222;-72
2023/05/20 01:35:28;;;;;;;4.27;3.00;;;13.50;99.90;;;;;;4988237;28;20222;-72
2023/05/20 01:37:57;;;;;;;3.53;2.60;;;13.50;99.90;;;;;;4988144;28;20237;-71
2023/05/20 01:40:27;;;;;;;2.83;2.63;;;13.50;99.90;;;;;;4988320;28;20210;-71
2023/05/20 01:42:56;;;;;;;3.00;2.80;;;13.40;99.90;;;;;;4987710;28;20715;-71
2023/05/20 01:45:24;;;;;;;4.03;2.67;;;13.40;99.90;;;;;;4988179;28;20230;-71
2023/05/20 01:47:51;;;;;;;3.47;3.17;;;13.40;99.90;;;;;;4988375;28;20214;-71
2023/05/20 01:50:18;;;;;;;2.93;2.70;;;13.40;99.90;;;;;;4987925;28;20329;-71
2023/05/20 01:52:45;;;;;;;3.23;2.93;;;13.40;99.90;;;;;;4987824;28;20210;-71
2023/05/20 01:55:12;;;;;;;3.20;2.90;;;13.40;99.90;;;;;;4988115;28;20238;-71
2023/05/20 01:57:40;;;;;;;4.37;2.80;;;13.40;99.90;;;;;;4987715;28;20209;-71
2023/05/20 02:00:08;;;;;;;4.53;2.67;;;13.40;99.90;;;;;;4987734;28;20260;-71
2023/05/20 02:02:35;;;;;;;3.70;3.23;;;13.40;99.90;;;;;;4977721;28;20309;-71
2023/05/20 02:05:02;;;;;;;3.33;2.40;;;13.40;99.90;;;;;;4977796;28;20302;-71
2023/05/20 02:07:29;;;;;;;3.80;2.80;;;13.40;99.90;;;;;;4987129;28;20211;-71
2023/05/20 02:09:56;;;;;;;4.60;3.23;;;13.40;99.90;;;;;;4987313;28;20682;-71
2023/05/20 02:12:23;;;;;;;3.40;2.77;;;13.40;99.90;;;;;;4977079;28;20362;-71
2023/05/20 02:14:51;;;;;;;2.60;2.40;;;13.30;99.90;;;;;;4967829;28;20605;-71
2023/05/20 02:17:18;;;;;;;4.03;3.00;;;13.30;99.90;;;;;;4967730;28;20302;-72
2023/05/20 02:19:45;;;;;;;6.27;3.03;;;13.20;99.90;;;;;;4967838;28;20210;-71
2023/05/20 02:22:12;;;;;;;3.20;2.90;;;13.20;99.90;;;;;;4969636;28;20225;-71
2023/05/20 02:24:39;;;;;;;4.27;2.87;;;13.10;99.90;;;;;;4967680;28;20221;-71
2023/05/20 02:27:06;;;;;;;3.90;2.80;;;13.00;99.90;;;;;;4967684;28;20759;-71
2023/05/20 02:29:34;;;;;;;3.03;2.83;;;13.00;99.90;;;;;;4967648;28;20578;-71
2023/05/20 02:32:02;;;;;;;6.40;2.70;;;13.00;99.90;;;;;;4972689;28;20636;-71
2023/05/20 02:34:30;;;;;;;4.63;2.93;;;12.90;99.90;;;;;;4986857;28;20213;-71
2023/05/20 02:36:57;;;;;;;2.83;2.60;;;12.90;99.90;;;;;;4986863;28;20305;-71
2023/05/20 02:39:23;;;;;;;4.00;2.50;;;12.80;99.90;;;;;;4985658;28;20218;-71
2023/05/20 02:41:50;;;;;;;3.47;2.83;;;12.80;99.90;;;;;;4968501;28;20217;-71
2023/05/20 02:44:17;;;;;;;3.33;3.03;;;12.80;99.90;;;;;;4967760;28;20305;-71
2023/05/20 02:46:44;;;;;;;3.10;2.80;;;12.80;99.90;;;;;;4967250;28;20214;-70
2023/05/20 02:49:13;;;;;;;4.37;3.30;;;12.80;99.90;;;;;;4967729;28;20213;-71
2023/05/20 02:51:40;;;;;;;4.60;3.00;;;12.70;99.90;;;;;;4970651;28;20348;-71
2023/05/20 02:54:07;;;;;;;3.40;3.07;;;12.70;99.90;;;;;;4987000;28;20301;-71
2023/05/20 02:56:34;;;;;;;3.50;3.20;;;12.80;99.90;;;;;;4986493;28;20297;-71
2023/05/20 02:59:02;;;;;;;4.37;2.90;;;12.70;99.90;;;;;;4986930;28;20699;-71
2023/05/20 03:01:29;;;;;;;4.10;3.07;;;12.80;99.90;;;;;;4986183;28;20206;-71
2023/05/20 03:03:56;;;;;;;5.47;3.20;;;12.80;99.90;;;;;;4986704;28;20301;-71
2023/05/20 03:06:25;;;;;;;4.13;2.80;;;12.90;99.90;;;;;;4986459;28;20214;-71
2023/05/20 03:08:51;;;;;;;3.73;3.30;;;12.90;99.90;;;;;;4985921;28;20278;-70
2023/05/20 03:11:18;;;;;;;2.60;2.37;;;12.80;99.90;;;;;;4976639;28;20320;-71
2023/05/20 03:13:45;;;;;;;4.30;3.00;;;12.80;99.90;;;;;;4974436;28;20210;-71
2023/05/20 03:16:12;;;;;;;4.77;3.10;;;12.70;99.90;;;;;;4967090;28;20199;-71
2023/05/20 03:18:39;;;;;;;2.83;2.63;;;12.70;99.90;;;;;;4966762;28;20233;-71
2023/05/20 03:21:07;;;;;;;3.50;2.70;;;12.80;99.90;;;;;;4967054;28;20634;-71
2023/05/20 03:23:35;;;;;;;4.60;3.00;;;12.80;99.90;;;;;;4966999;28;20644;-71
2023/05/20 03:26:02;;;;;;;5.50;3.13;;;12.80;99.90;;;;;;4967220;28;20214;-71
2023/05/20 03:28:29;;;;;;;3.77;3.30;;;12.80;99.90;;;;;;4967169;28;20233;-71
2023/05/20 03:30:56;;;;;;;3.17;2.87;;;12.90;99.90;;;;;;4966921;28;20262;-71
2023/05/20 03:33:24;;;;;;;5.07;2.83;;;12.90;99.90;;;;;;4967588;28;20210;-71
2023/05/20 03:35:51;;;;;;;3.40;3.10;;;12.90;99.90;;;;;;4987517;28;20214;-71
2023/05/20 03:38:18;;;;;;;5.13;3.27;;;12.80;99.90;;;;;;4990172;28;20682;-71
2023/05/20 03:40:46;;;;;;;3.13;2.90;;;12.70;99.90;;;;;;4990593;28;20298;-71
2023/05/20 03:43:13;;;;;;;5.77;3.10;;;12.70;99.90;;;;;;4990557;28;20293;-71
2023/05/20 03:45:40;;;;;;;6.50;3.30;;;12.70;99.90;;;;;;4990080;28;20292;-71
2023/05/20 03:48:07;;;;;;;4.03;2.90;;;12.70;99.90;;;;;;4990546;28;20210;-71
2023/05/20 03:50:34;;;;;;;4.20;2.97;;;12.70;99.90;;;;;;4989719;28;20301;-70
2023/05/20 03:53:01;;;;;;;3.27;2.97;;;12.80;99.90;;;;;;4989525;28;20248;-71
2023/05/20 03:55:28;;;;;;;3.23;2.93;;;12.80;99.90;;;;;;4989866;28;20210;-72
2023/05/20 03:57:56;;;;;;;4.27;3.30;;;12.80;99.90;;;;;;4989945;28;20297;-71
2023/05/20 04:00:23;;;;;;;5.67;3.07;;;12.80;99.90;;;;;;4989385;28;20313;-72
2023/05/20 04:02:50;;;;;;;5.13;3.20;;;12.90;99.90;;;;;;4989746;28;20246;-72
2023/05/20 04:05:17;;;;;;;5.40;3.10;;;12.80;99.90;;;;;;4989709;28;20306;-72
2023/05/20 04:07:44;;;;;;;3.00;2.70;;;12.80;99.90;;;;;;4989201;28;20266;-71
2023/05/20 04:10:11;;;;;;;3.77;3.07;;;12.90;99.90;;;;;;4989249;28;20284;-71
2023/05/20 04:12:38;;;;;;;3.47;3.17;;;12.90;99.90;;;;;;4989372;28;20321;-71
2023/05/20 04:15:08;;;;;;;4.13;3.27;;;12.90;99.90;;;;;;4989342;28;20216;-72
2023/05/20 04:17:36;;;;;;;3.90;2.87;;;12.90;99.90;;;;;;4989509;28;20216;-72
2023/05/20 04:20:06;;;;;;;3.80;3.10;;;12.90;99.90;;;;;;4989434;28;20237;-72
2023/05/20 04:22:32;;;;;;;3.30;3.00;;;12.90;99.90;;;;;;4989055;28;20249;-72
2023/05/20 04:24:59;;;;;;;3.47;3.17;;;12.90;99.90;;;;;;4989448;28;20764;-72
2023/05/20 04:27:27;;;;;;;3.53;3.33;;;12.90;99.90;;;;;;4989604;28;20308;-72
2023/05/20 04:29:54;;;;;;;3.27;3.03;;;12.90;99.90;;;;;;4989732;28;20304;-72
2023/05/20 04:32:22;;;;;;;3.37;3.07;;;12.80;99.90;;;;;;4988121;28;20241;-71
2023/05/20 04:34:53;;;;;;;3.37;3.07;;;12.80;99.90;;;;;;4989531;28;20243;-71
2023/05/20 04:37:20;;;;;;;7.67;3.30;;;12.80;99.90;;;;;;4988952;28;20704;-71
2023/05/20 04:39:47;;;;;;;4.57;3.53;;;12.90;99.90;;;;;;4988640;28;20652;-71
2023/05/20 04:42:14;;;;;;;5.67;3.40;;;12.90;99.90;;;;;;4980438;28;20207;-71
2023/05/20 04:44:40;;;;;;;4.70;3.27;;;12.90;99.90;;;;;;4968505;28;20785;-71
2023/05/20 04:47:07;;;;;;;4.73;3.20;;;12.80;99.90;;;;;;4985142;28;20645;-71
2023/05/20 04:49:36;;;;;;;4.73;3.17;;;12.80;99.90;;;;;;4988058;28;20573;-71
2023/05/20 04:52:04;;;;;;;3.43;3.13;;;12.90;99.90;;;;;;4988315;28;20221;-72
2023/05/20 04:54:31;;;;;;;6.10;3.70;;;12.90;99.90;;;;;;4988635;28;20224;-72
2023/05/20 04:56:58;;;;;;;4.43;3.90;;;13.00;99.90;;;;;;4988665;28;20265;-72
2023/05/20 04:59:25;;;;;;;5.53;3.50;;;13.00;99.90;;;;;;4988548;28;20289;-72
2023/05/20 05:01:52;;;;;;;4.43;3.70;;;12.90;99.90;;;;;;4988360;28;20297;-72
2023/05/20 05:04:19;;;;;;;4.07;3.57;;;12.90;99.90;;;;;;4988505;28;20214;-72
2023/05/20 05:06:49;;;;;;;7.53;3.97;;;12.80;99.90;;;;;;4988889;28;20206;-72
2023/05/20 05:09:16;;;;;;;5.67;3.27;;;12.80;99.90;;;;;;4988256;28;20316;-71
2023/05/20 05:11:43;;;;;;;3.50;3.20;;;12.90;99.90;;;;;;4988600;28;20226;-71
2023/05/20 05:14:10;;;;;;;4.17;3.20;;;12.90;99.90;;;;;;4988443;28;20236;-71
2023/05/20 05:16:36;;;;;;;6.03;3.63;;;13.00;99.90;;;;;;4988271;28;20329;-71
2023/05/20 05:19:04;;;;;;;4.10;3.10;;;12.90;99.90;;;;;;4988255;28;20210;-71
2023/05/20 05:21:31;;;;;;;4.27;3.80;;;12.90;99.90;;;;;;4987900;28;20776;-71
2023/05/20 05:23:59;;;;;;;3.80;3.50;;;13.00;99.90;;;;;;4987571;28;20242;-72
2023/05/20 05:26:26;;;;;;;5.70;3.70;;;13.10;99.90;;;;;;4987454;28;20238;-72
2023/05/20 05:28:54;;;;;;;5.80;3.70;;;13.10;99.90;;;;;;4988462;28;20309;-72
2023/05/20 05:31:21;;;;;;;3.87;3.40;;;13.00;99.90;;;;;;4987844;28;20218;-72
2023/05/20 05:33:48;;;;;;;4.53;3.40;;;13.00;99.90;;;;;;4970334;28;20214;-72
2023/05/20 05:36:16;;;;;;;3.50;3.20;;;13.00;99.90;;;;;;4988175;28;20214;-71
2023/05/20 05:38:43;;;;;;;5.73;3.77;;;13.00;99.90;;;;;;4988192;28;20305;-71
2023/05/20 05:41:12;;;;;;;5.13;3.53;;;13.10;99.90;;;;;;4988254;28;20661;-71
2023/05/20 05:43:38;;;;;;;3.83;3.47;;;13.10;99.90;;;;;;4987957;28;20316;-71
2023/05/20 05:46:05;;;;;;;4.53;3.40;;;13.10;99.90;;;;;;4987916;28;20214;-71
2023/05/20 05:48:32;;;;;;;5.77;3.73;;;13.20;99.90;;;;;;4987948;28;20301;-71
2023/05/20 05:50:59;;;;;;;3.50;3.30;;;13.10;99.90;;;;;;4988401;28;20233;-71
2023/05/20 05:53:26;;;;;;;7.67;4.27;;;13.10;99.90;;;;;;4987922;28;20345;-73
2023/05/20 05:55:53;;;;;;;4.97;3.83;;;13.10;99.90;;;;;;4986674;28;20217;-72
2023/05/20 05:58:21;;;;;;;4.27;3.57;;;13.10;99.90;;;;;;4987151;28;20309;-72
2023/05/20 06:00:51;;;;;;;5.23;3.70;;;13.20;99.90;;;;;;4987186;28;20634;-72
2023/05/20 06:03:18;;;;;;;6.20;3.80;;;13.20;99.90;;;;;;4987204;28;20684;-72
2023/05/20 06:05:46;;;;;;;5.40;4.07;;;13.20;99.90;;;;;;4987016;28;20693;-72
2023/05/20 06:08:13;;;;;;;4.67;3.87;;;13.30;99.90;;;;;;4987210;28;20245;-72
2023/05/20 06:10:39;;;;;;;4.20;3.80;;;13.20;99.90;;;;;;4986447;28;20233;-72
2023/05/20 06:13:06;;;;;;;4.17;3.67;;;13.30;99.90;;;;;;4987438;28;20238;-72
2023/05/20 06:15:35;;;;;;;3.73;3.43;;;13.40;99.90;;;;;;4986783;28;20210;-72
2023/05/20 06:18:01;;;;;;;5.93;4.17;;;13.40;99.90;;;;;;4984110;28;20207;-72
2023/05/20 06:20:28;;;;;;;4.50;4.10;;;13.40;99.90;;;;;;4967957;28;20981;-71
2023/05/20 06:22:55;;;;;;;9.27;4.50;;;13.40;99.90;;;;;;4970334;28;20202;-72
2023/05/20 06:25:22;;;;;;;7.97;4.33;;;13.50;99.90;;;;;;4987056;28;20304;-72
2023/05/20 06:27:50;;;;;;;5.70;4.03;;;13.50;99.90;;;;;;4987112;28;20206;-72
2023/05/20 06:30:16;;;;;;;4.00;3.63;;;13.50;99.90;;;;;;4986784;28;20216;-72
2023/05/20 06:32:46;;;;;;;5.50;4.40;;;13.50;99.90;;;;;;4986927;28;20234;-72
2023/05/20 06:35:13;;;;;;;6.13;4.20;;;13.50;99.90;;;;;;4986851;28;20304;-72
2023/05/20 06:37:40;;;;;;;5.23;4.13;;;13.60;99.90;;;;;;4986995;28;20317;-71
2023/05/20 06:40:08;;;;;;;7.07;4.60;;;13.50;99.90;;;;;;4986145;28;20214;-71
2023/05/20 06:42:35;;;;;;;6.43;4.47;;;13.60;99.90;;;;;;4967113;28;20286;-72
2023/05/20 06:45:02;;;;;;;7.37;4.17;;;13.60;99.90;;;;;;4967338;28;20333;-72
2023/05/20 06:47:28;;;;;;;17.00;5.07;;;13.60;99.90;;;;;;4967377;28;20211;-71
2023/05/20 06:49:57;;;;;;;5.93;4.53;;;13.70;99.90;;;;;;4967276;28;20238;-72
2023/05/20 06:52:23;;;;;;;8.10;4.27;;;13.70;99.90;;;;;;4984592;28;20321;-71
2023/05/20 06:54:50;;;;;;;4.73;4.20;;;13.70;99.90;;;;;;4986797;28;20307;-71
2023/05/20 06:57:17;;;;;;;6.20;4.67;;;13.60;99.90;;;;;;4986830;28;20297;-72
2023/05/20 06:59:44;;;;;;;6.03;4.80;;;13.60;99.90;;;;;;4986613;28;20297;-72
2023/05/20 07:02:11;;;;;;;6.50;3.87;;;13.60;99.90;;;;;;4986322;28;20218;-72
2023/05/20 07:04:38;;;;;;;5.70;4.83;;;13.60;99.90;;;;;;4986094;28;20221;-72
2023/05/20 07:07:06;;;;;;;5.53;4.57;;;13.60;99.90;;;;;;4985835;28;20682;-72
2023/05/20 07:09:33;;;;;;;4.67;4.20;;;13.60;99.90;;;;;;4986091;28;20300;-72
2023/05/20 07:12:00;;;;;;;6.37;4.87;;;13.70;99.90;;;;;;4985433;28;20328;-72
2023/05/20 07:14:27;;;;;;;8.30;4.37;;;13.70;99.90;;;;;;4973537;28;20206;-72
2023/05/20 07:16:54;;;;;;;5.80;4.33;;;13.70;99.90;;;;;;4966835;28;20242;-71
2023/05/20 07:19:21;;;;;;;6.13;4.30;;;13.70;99.90;;;;;;4971409;28;20333;-71
2023/05/20 07:21:48;;;;;;;5.73;4.00;;;13.80;99.90;;;;;;4986178;28;20317;-72
2023/05/20 07:24:17;;;;;;;6.50;4.37;;;13.80;99.90;;;;;;4986033;28;20527;-72
2023/05/20 07:26:44;;;;;;;4.47;4.07;;;13.80;99.90;;;;;;4986361;28;20276;-72
2023/05/20 07:29:11;;;;;;;5.43;4.73;;;13.80;99.90;;;;;;4985878;28;20206;-71
2023/05/20 07:31:38;;;;;;;6.97;4.80;;;13.80;99.90;;;;;;4986126;28;20206;-72
2023/05/20 07:34:05;;;;;;;5.87;4.77;;;13.80;99.90;;;;;;4986411;28;20373;-72
2023/05/20 07:36:32;;;;;;;6.40;4.23;;;14.00;99.90;;;;;;4986572;28;20612;-71
2023/05/20 07:38:59;;;;;;;5.97;4.37;;;14.00;99.90;;;;;;4986407;28;20210;-72
2023/05/20 07:41:27;;;;;;;4.73;4.33;;;14.10;99.90;;;;;;4979850;28;20202;-72
2023/05/20 07:43:54;;;;;;;13.67;5.53;;;14.20;99.90;;;;;;4975806;28;20221;-72
2023/05/20 07:46:21;;;;;;;5.20;4.63;;;14.20;99.90;;;;;;4977689;28;20294;-72
2023/05/20 07:48:48;;;;;;;5.37;4.20;;;14.20;99.90;;;;;;4977268;28;20202;-72
2023/05/20 07:51:15;;;;;;;7.53;4.20;;;14.30;99.90;;;;;;4977031;28;20227;-71
2023/05/20 07:53:41;;;;;;;5.43;4.50;;;14.40;99.90;;;;;;4977588;28;20252;-71
2023/05/20 07:56:08;;;;;;;4.90;4.50;;;14.50;99.90;;;;;;4974892;28;20659;-71
2023/05/20 07:58:37;;;;;;;11.80;4.60;;;14.50;99.90;;;;;;4977494;28;20645;-71
2023/05/20 08:01:04;;;;;;;7.17;4.40;;;14.60;99.90;;;;;;4974171;28;20203;-71
2023/05/20 08:03:30;;;;;;;5.13;4.40;;;14.60;99.90;;;;;;4976689;28;20306;-71
2023/05/20 08:05:57;;;;;;;4.90;4.00;;;14.60;99.90;;;;;;4973425;28;20292;-71
2023/05/20 08:08:24;;;;;;;6.00;4.50;;;14.70;99.90;;;;;;4964196;28;20673;-71
2023/05/20 08:10:52;;;;;;;5.67;4.43;;;14.70;99.90;;;;;;4974189;28;20294;-71
2023/05/20 08:13:19;;;;;;;5.07;4.57;;;14.70;99.90;;;;;;4984230;28;20233;-71
2023/05/20 08:15:48;;;;;;;5.03;4.20;;;14.80;99.90;;;;;;4983715;28;20650;-71
2023/05/20 08:18:15;;;;;;;6.03;4.23;;;14.90;99.90;;;;;;4983807;28;20744;-71
2023/05/20 08:20:42;;;;;;;4.50;4.10;;;14.90;99.90;;;;;;4986131;28;20298;-71
2023/05/20 08:23:09;;;;;;;6.30;4.40;;;14.90;99.90;;;;;;4987219;28;20217;-72
2023/05/20 08:25:37;;;;;;;5.33;4.70;;;15.00;99.90;;;;;;4975509;28;20648;-71
2023/05/20 08:28:05;;;;;;;4.63;4.23;;;15.10;99.90;;;;;;4976216;28;20207;-71
2023/05/20 08:30:32;;;;;;;4.97;4.47;;;15.10;99.90;;;;;;4980374;28;20214;-71
2023/05/20 08:33:01;;;;;;;6.73;4.10;;;15.20;99.90;;;;;;4980477;28;20344;-71
2023/05/20 08:35:28;;;;;;;4.87;4.07;;;15.30;99.90;;;;;;4980917;28;20301;-72
2023/05/20 08:37:55;;;;;;;6.30;4.40;;;15.30;99.90;;;;;;4977391;28;20218;-72
2023/05/20 08:40:22;;;;;;;7.20;4.33;;;15.40;99.90;;;;;;4981941;28;20289;-71
2023/05/20 08:42:51;;;;;;;4.33;4.00;;;15.50;99.90;;;;;;4976313;28;20653;-72
2023/05/20 08:45:20;;;;;;;4.73;4.17;;;15.50;99.90;;;;;;4987493;28;20222;-72
2023/05/20 08:47:47;;;;;;;4.80;4.40;;;15.60;99.90;;;;;;4986033;28;20233;-71
2023/05/20 08:50:16;;;;;;;5.13;4.63;;;15.60;99.90;;;;;;4984334;28;20244;-71
2023/05/20 08:52:45;;;;;;;27.87;6.30;;;15.70;99.90;;;;;;4982099;28;20321;-72
2023/05/20 08:55:21;;;;;;;5.53;4.47;;;15.80;99.90;;;;;;4967815;28;20294;-72
2023/05/20 08:57:49;;;;;;;5.87;4.13;;;15.90;99.90;;;;;;4967407;28;20302;-72
2023/05/20 09:00:17;;;;;;;15.07;4.80;;;16.00;99.90;;;;;;4967405;28;20277;-72
2023/05/20 09:02:45;;;;;;;8.13;4.50;;;16.00;99.90;;;;;;4967444;28;20222;-72
2023/05/20 09:05:12;;;;;;;14.90;4.20;;;16.00;99.90;;;;;;4982829;28;20214;-72
2023/05/20 09:07:42;;;;;;;6.03;4.10;;;16.00;99.90;;;;;;4982198;28;20249;-73
2023/05/20 09:10:10;;;;;;;4.37;3.97;;;16.00;99.90;;;;;;4988278;28;20206;-72
2023/05/20 09:12:37;;;;;;;4.30;3.90;;;16.00;99.90;;;;;;4987137;28;20233;-72
2023/05/20 09:15:05;;;;;;;9.43;4.37;;;16.10;99.90;;;;;;4987529;28;20222;-72
2023/05/20 09:17:32;;;;;;;11.03;4.13;;;16.10;99.90;;;;;;4987711;28;20213;-72
2023/05/20 09:19:59;;;;;;;4.37;3.93;;;16.10;99.90;;;;;;4987294;28;20649;-72
2023/05/20 09:22:27;;;;;;;5.83;4.50;;;16.00;99.90;;;;;;4987502;28;20630;-72
2023/05/20 09:24:55;;;;;;;16.67;5.17;;;16.00;99.90;;;;;;4987855;28;20218;-72
2023/05/20 09:27:22;;;;;;;4.63;4.23;;;16.00;99.90;;;;;;4988011;28;20293;-72
2023/05/20 09:29:50;;;;;;;4.80;4.20;;;15.90;99.90;;;;;;4987611;28;20229;-72
2023/05/20 09:32:18;;;;;;;5.30;4.83;;;15.90;99.90;;;;;;4985828;28;20202;-72
2023/05/20 09:34:47;;;;;;;4.53;4.13;;;15.90;99.90;;;;;;4987677;28;20295;-78
2023/05/20 09:37:17;;;;;;;4.47;4.07;;;15.90;99.90;;;;;;4987480;28;20300;-72
2023/05/20 09:39:50;;;;;;;7.40;4.17;;;16.00;99.90;;;;;;4984654;28;20213;-72
2023/05/20 09:42:25;;;;;;;4.27;3.87;;;16.00;99.90;;;;;;4971267;28;20718;-72
2023/05/20 09:44:53;;;;;;;4.23;3.90;;;16.00;99.90;;;;;;4985713;28;20308;-72
2023/05/20 09:47:20;;;;;;;6.57;4.47;;;16.00;99.90;;;;;;4986361;28;20272;-72
2023/05/20 09:49:48;;;;;;;6.57;4.43;;;16.00;99.90;;;;;;4986004;28;20292;-72
2023/05/20 09:52:16;;;;;;;44.50;7.23;;;16.00;99.90;;;;;;4985778;28;20202;-72
2023/05/20 09:54:44;;;;;;;7.30;4.53;;;16.00;99.90;;;;;;4986156;28;20324;-72
2023/05/20 09:57:13;;;;;;;6.97;4.70;;;16.00;99.90;;;;;;4985600;28;20213;-72
2023/05/20 09:59:42;;;;;;;36.97;7.00;;;16.00;99.90;;;;;;4985752;28;20206;-72
2023/05/20 10:02:09;;;;;;;9.13;5.07;;;16.00;99.90;;;;;;4985154;28;20202;-72
2023/05/20 10:04:41;;;;;;;4.57;4.17;;;16.00;99.90;;;;;;4984935;28;20293;-72
2023/05/20 10:07:29;;;;;;;5.40;4.90;;;16.10;99.90;;;;;;4982778;28;20967;-72
2023/05/20 10:10:07;;;;;;;5.50;4.80;;;16.10;99.90;;;;;;4985008;28;20289;-73
2023/05/20 10:12:39;;;;;;;5.20;4.50;;;16.10;99.90;;;;;;4985889;28;20198;-72
2023/05/20 10:15:18;;;;;;;49.50;8.73;;;16.10;99.90;;;;;;4986346;28;20724;-72
2023/05/20 10:17:53;;;;;;;7.67;5.40;;;16.20;99.90;;;;;;4987148;28;20276;-72
2023/05/20 10:20:20;;;;;;;10.77;5.13;;;16.20;99.90;;;;;;4986335;28;20219;-72
2023/05/20 10:22:56;;;;;;;4.63;4.33;;;16.30;99.90;;;;;;4985751;28;20317;-72
2023/05/20 10:25:26;;;;;;;5.50;5.10;;;16.40;99.90;;;;;;4986491;28;20288;-72
2023/05/20 10:27:53;;;;;;;8.00;5.27;;;16.40;99.90;;;;;;4986558;28;20213;-72
2023/05/20 10:30:22;;;;;;;6.67;5.57;;;16.50;99.90;;;;;;4986190;28;20238;-72
2023/05/20 10:32:52;;;;;;;7.27;5.47;;;16.50;99.90;;;;;;4986519;28;20568;-72
2023/05/20 10:35:25;;;;;;;6.83;5.90;;;16.60;99.90;;;;;;4986507;28;20282;-71
2023/05/20 10:37:52;;;;;;;6.40;5.70;;;16.70;99.90;;;;;;4986820;28;20618;-71
2023/05/20 10:40:20;;;;;;;6.93;5.97;;;16.80;99.90;;;;;;4986557;28;20293;-71
2023/05/20 10:42:48;;;;;;;6.03;5.37;;;16.80;99.90;;;;;;4985860;28;20836;-71
2023/05/20 10:45:27;;;;;;;7.27;6.03;;;16.80;99.90;;;;;;4986296;28;20321;-71
2023/05/20 10:47:55;;;;;;;6.20;5.70;;;16.70;99.90;;;;;;4986453;28;20217;-71
2023/05/20 10:50:29;;;;;;;6.17;5.60;;;16.80;99.90;;;;;;4986516;28;20217;-71
2023/05/20 10:53:03;;;;;;;7.63;5.93;;;16.80;99.90;;;;;;4986090;28;20241;-71
2023/05/20 10:55:36;;;;;;;9.93;6.53;;;16.90;99.90;;;;;;4986372;28;20198;-71
2023/05/20 10:58:03;;;;;;;6.00;5.50;;;17.00;99.90;;;;;;4986478;28;20585;-71
2023/05/20 11:00:32;;;;;;;28.57;7.13;;;17.10;99.90;;;;;;4986157;28;20206;-71
2023/05/20 11:02:59;;;;;;;8.07;5.93;;;17.20;99.90;;;;;;4977063;28;20290;-71
2023/05/20 11:05:26;;;;;;;13.93;6.77;;;17.30;99.90;;;;;;4979840;28;20630;-72
2023/05/20 11:08:01;;;;;;;8.67;5.77;;;17.40;99.90;;;;;;4986508;28;20807;-71
2023/05/20 11:10:28;;;;;;;6.93;5.87;;;17.50;99.90;;;;;;4987009;28;20264;-71
2023/05/20 11:12:56;;;;;;;10.53;5.87;;;17.50;99.90;;;;;;4979396;28;20209;-71
2023/05/20 11:15:23;;;;;;;7.83;6.03;;;17.60;99.90;;;;;;4969257;28;20293;-71
2023/05/20 11:17:56;;;;;;;6.40;5.83;;;17.70;99.90;;;;;;4986401;28;20233;-71
2023/05/20 11:20:23;;;;;;;13.27;6.43;;;17.90;99.90;;;;;;4986148;28;20214;-71
2023/05/20 11:22:50;;;;;;;5.90;5.50;;;18.00;99.90;;;;;;4982022;28;20210;-71
2023/05/20 11:25:18;;;;;;;6.87;6.17;;;17.80;99.90;;;;;;4986170;28;20218;-71
2023/05/20 11:27:45;;;;;;;6.20;5.47;;;17.80;99.90;;;;;;4985900;28;20202;-71
2023/05/20 11:30:15;;;;;;;6.20;5.60;;;17.90;99.90;;;;;;4985412;28;20309;-71
2023/05/20 11:32:42;;;;;;;7.43;5.83;;;18.10;99.90;;;;;;4986166;28;20253;-72
2023/05/20 11:35:21;;;;;;;9.17;6.80;;;18.30;99.90;;;;;;4986260;28;20241;-71
2023/05/20 11:37:55;;;;;;;6.50;5.73;;;18.50;99.90;;;;;;4986566;28;20233;-71
2023/05/20 11:40:25;;;;;;;6.13;5.53;;;18.60;99.90;;;;;;4986257;28;20230;-71
2023/05/20 11:42:54;;;;;;;15.73;6.80;;;18.80;99.90;;;;;;4975406;28;20202;-71
2023/05/20 11:45:21;;;;;;;6.90;6.10;;;18.80;99.90;;;;;;4985772;28;20262;-72
2023/05/20 11:47:58;;;;;;;7.27;5.83;;;18.80;99.90;;;;;;4985847;28;20328;-71
2023/05/20 11:50:26;;;;;;;6.80;6.10;;;18.80;99.90;;;;;;4985779;28;20206;-72
2023/05/20 11:52:58;;;;;;;7.93;6.57;;;18.80;99.90;;;;;;4985893;28;20289;-71
2023/05/20 11:55:25;;;;;;;6.90;6.17;;;18.70;99.90;;;;;;4987351;28;20224;-71
2023/05/20 11:57:52;;;;;;;6.93;6.20;;;18.60;99.90;;;;;;4989534;28;20681;-71
2023/05/20 12:00:19;;;;;;;6.70;6.20;;;18.60;99.90;;;;;;4988162;28;20293;-72
2023/05/20 12:02:46;;;;;;;7.57;6.00;;;18.60;99.90;;;;;;4980940;28;20207;-71
2023/05/20 12:05:13;;;;;;;8.67;6.20;;;18.70;99.90;;;;;;4969951;28;20305;-72
2023/05/20 12:07:42;;;;;;;14.40;6.80;;;18.70;99.90;;;;;;4976489;28;20806;-72
2023/05/20 12:10:09;;;;;;;16.87;7.07;;;18.90;99.90;;;;;;4989344;28;20203;-71
2023/05/20 12:12:37;;;;;;;6.20;5.70;;;19.20;99.90;;;;;;4985073;28;21004;-71
2023/05/20 12:15:04;;;;;;;6.50;5.87;;;19.40;99.90;;;;;;4983011;28;20225;-71
2023/05/20 12:17:31;;;;;;;6.33;5.80;;;19.60;99.90;;;;;;4984674;28;20225;-71
2023/05/20 12:19:58;;;;;;;6.60;6.10;;;19.80;99.90;;;;;;4988999;28;20763;-72
2023/05/20 12:22:25;;;;;;;8.00;5.90;;;20.00;99.90;;;;;;4988544;28;20297;-71
2023/05/20 12:24:53;;;;;;;41.22;9.07;;;20.20;99.90;;;;;;4988903;28;20289;-72
2023/05/20 12:27:20;;;;;;;11.40;6.82;;;20.30;99.90;;;;;;4989319;28;20245;-71
2023/05/20 12:29:47;;;;;;;6.50;5.35;;;20.40;99.90;;;;;;4989121;28;20309;-72
2023/05/20 12:32:14;;;;;;;8.10;5.90;;;20.70;99.90;;;;;;4988647;28;20663;-71
2023/05/20 12:34:41;;;;;;;7.05;5.50;;;20.70;99.90;;;;;;4989003;28;20252;-72
2023/05/20 12:37:08;;;;;;;48.60;8.40;;;20.90;99.90;;;;;;4989008;28;20253;-72
2023/05/20 12:39:35;;;;;;;6.90;5.80;;;21.00;99.90;;;;;;4988780;28;20277;-72
2023/05/20 12:42:03;;;;;;;6.90;6.07;;;21.10;99.90;;;;;;4988957;28;20796;-72
2023/05/20 12:44:30;;;;;;;9.15;6.60;;;21.20;99.90;;;;;;4988774;28;20222;-71
2023/05/20 12:46:57;;;;;;;7.13;6.00;;;21.20;99.90;;;;;;4988557;28;20304;-71
2023/05/20 12:49:24;;;;;;;7.10;5.97;;;21.10;99.90;;;;;;4988423;28;20710;-71